createdAt,value
2022-10-16T00:01:31.189Z,99.90
2022-10-16T00:04:00.554Z,99.90
2022-10-16T00:06:35.422Z,99.90
2022-10-16T00:09:19.249Z,99.90
2022-10-16T00:14:32.721Z,99.90
2022-10-16T00:17:08.550Z,99.90
2022-10-16T00:19:39.317Z,99.90
2022-10-16T00:22:27.874Z,99.90
2022-10-16T00:24:55.598Z,99.90
2022-10-16T00:27:29.450Z,99.90
2022-10-16T00:29:56.964Z,99.90
2022-10-16T00:32:25.624Z,99.90
2022-10-16T00:34:55.672Z,99.90
2022-10-16T00:37:23.106Z,99.90
2022-10-16T00:39:50.464Z,99.90
2022-10-16T00:42:20.145Z,99.90
2022-10-16T00:44:56.858Z,99.90
2022-10-16T00:47:33.503Z,99.90
2022-10-16T00:50:16.522Z,99.90
2022-10-16T00:52:49.680Z,99.90
2022-10-16T00:55:18.086Z,99.90
2022-10-16T00:57:50.961Z,99.90
2022-10-16T01:00:22.934Z,99.90
2022-10-16T01:02:58.431Z,99.90
2022-10-16T01:05:54.774Z,99.90
2022-10-16T01:08:40.163Z,99.90
2022-10-16T01:11:24.511Z,99.90
2022-10-16T01:14:00.866Z,99.90
2022-10-16T01:16:45.147Z,99.90
2022-10-16T01:19:33.180Z,99.90
2022-10-16T01:22:05.393Z,99.90
2022-10-16T01:24:49.172Z,99.90
2022-10-16T01:27:31.439Z,99.90
2022-10-16T01:30:24.262Z,99.90
2022-10-16T01:33:00.607Z,99.90
2022-10-16T01:35:33.206Z,99.90
2022-10-16T01:38:07.718Z,99.90
2022-10-16T01:40:37.751Z,99.90
2022-10-16T01:43:13.542Z,99.90
2022-10-16T01:45:48.644Z,99.90
2022-10-16T01:48:19.906Z,99.90
2022-10-16T01:51:02.092Z,99.90
2022-10-16T01:53:32.931Z,99.90
2022-10-16T01:56:06.920Z,99.90
2022-10-16T01:58:39.275Z,99.90
2022-10-16T02:01:09.929Z,99.90
2022-10-16T02:03:41.731Z,99.90
2022-10-16T02:06:12.063Z,99.90
2022-10-16T02:11:21.335Z,99.90
2022-10-16T02:14:07.543Z,99.90
2022-10-16T02:16:43.988Z,99.90
2022-10-16T02:19:45.769Z,99.90
2022-10-16T02:22:28.670Z,99.90
2022-10-16T02:25:03.655Z,99.90
2022-10-16T02:27:42.981Z,99.90
2022-10-16T02:30:27.273Z,99.90
2022-10-16T02:32:55.696Z,99.90
2022-10-16T02:35:24.923Z,99.90
2022-10-16T02:37:55.963Z,99.90
2022-10-16T02:40:27.240Z,99.90
2022-10-16T02:42:55.847Z,99.90
2022-10-16T02:45:23.979Z,99.90
2022-10-16T02:47:54.177Z,99.90
2022-10-16T02:52:52.135Z,99.90
2022-10-16T02:55:19.748Z,99.90
2022-10-16T02:57:49.316Z,99.90
2022-10-16T03:00:18.247Z,99.90
2022-10-16T03:05:15.513Z,99.90
2022-10-16T03:12:40.113Z,99.90
2022-10-16T03:17:35.928Z,99.90
2022-10-16T03:20:03.712Z,99.90
2022-10-16T03:22:31.779Z,99.90
2022-10-16T03:25:01.420Z,99.90
2022-10-16T03:27:34.023Z,99.90
2022-10-16T03:35:03.608Z,99.90
2022-10-16T03:37:31.111Z,99.90
2022-10-16T03:40:00.639Z,99.90
2022-10-16T03:47:30.275Z,99.90
2022-10-16T03:49:57.871Z,99.90
2022-10-16T04:02:20.032Z,99.90
2022-10-16T04:04:47.307Z,99.90
2022-10-16T04:07:30.199Z,99.90
2022-10-16T04:10:07.979Z,99.90
2022-10-16T04:12:38.095Z,99.90
2022-10-16T04:15:11.071Z,99.90
2022-10-16T04:17:41.395Z,99.90
2022-10-16T04:20:12.128Z,99.90
2022-10-16T04:22:40.444Z,99.90
2022-10-16T04:30:04.027Z,99.90
2022-10-16T04:32:31.557Z,99.90
2022-10-16T04:34:58.831Z,99.90
2022-10-16T04:37:29.633Z,99.90
2022-10-16T04:44:57.400Z,99.90
2022-10-16T04:52:27.344Z,99.90
2022-10-16T04:59:52.413Z,99.90
2022-10-16T05:02:20.285Z,99.90
2022-10-16T05:07:16.092Z,99.90
2022-10-16T05:09:43.560Z,99.90
2022-10-16T05:14:41.588Z,99.90
2022-10-16T05:17:09.254Z,99.90
2022-10-16T05:24:34.913Z,99.90
2022-10-16T05:27:02.198Z,99.90
2022-10-16T05:29:33.256Z,99.90
2022-10-16T05:32:04.156Z,99.90
2022-10-16T05:37:00.056Z,99.90
2022-10-16T05:39:28.690Z,99.90
2022-10-16T05:42:00.664Z,99.90
2022-10-16T05:44:29.918Z,99.90
2022-10-16T05:46:59.548Z,99.90
2022-10-16T05:49:27.124Z,99.90
2022-10-16T05:52:02.948Z,99.90
2022-10-16T05:57:03.569Z,99.90
2022-10-16T05:59:47.077Z,99.90
2022-10-16T06:02:17.992Z,99.90
2022-10-16T06:07:29.309Z,99.90
2022-10-16T06:10:01.978Z,99.90
2022-10-16T06:12:48.992Z,99.90
2022-10-16T06:15:22.412Z,99.90
2022-10-16T06:18:06.473Z,99.90
2022-10-16T06:20:51.425Z,99.90
2022-10-16T06:23:31.986Z,99.90
2022-10-16T06:26:21.898Z,99.90
2022-10-16T06:28:50.171Z,99.90
2022-10-16T06:31:22.660Z,99.90
2022-10-16T06:33:53.489Z,99.90
2022-10-16T06:36:21.728Z,99.90
2022-10-16T06:38:51.049Z,99.90
2022-10-16T06:41:23.553Z,99.90
2022-10-16T06:46:26.835Z,99.90
2022-10-16T06:48:57.965Z,99.90
2022-10-16T06:51:29.842Z,99.90
2022-10-16T06:54:05.752Z,99.90
2022-10-16T06:56:38.519Z,99.90
2022-10-16T06:59:07.010Z,99.90
2022-10-16T07:01:38.331Z,99.90
2022-10-16T07:06:42.141Z,99.90
2022-10-16T07:09:12.271Z,99.90
2022-10-16T07:11:40.736Z,99.90
2022-10-16T07:14:20.820Z,99.90
2022-10-16T07:16:51.869Z,99.90
2022-10-16T07:19:19.427Z,99.90
2022-10-16T07:24:17.922Z,99.90
2022-10-16T07:26:49.221Z,99.90
2022-10-16T07:29:24.563Z,99.90
2022-10-16T07:31:58.173Z,99.90
2022-10-16T07:34:29.049Z,99.90
2022-10-16T07:36:57.605Z,99.90
2022-10-16T07:39:24.993Z,99.90
2022-10-16T07:41:52.243Z,99.90
2022-10-16T07:44:19.485Z,99.90
2022-10-16T07:46:49.025Z,99.90
2022-10-16T07:49:16.416Z,99.90
2022-10-16T07:51:46.080Z,99.90
2022-10-16T07:59:18.045Z,99.90
2022-10-16T08:01:48.362Z,99.90
2022-10-16T08:04:19.031Z,99.90
2022-10-16T08:06:54.174Z,99.90
2022-10-16T08:09:30.142Z,99.90
2022-10-16T08:14:47.838Z,99.90
2022-10-16T08:17:24.223Z,99.90
2022-10-16T08:20:05.329Z,99.90
2022-10-16T08:25:01.501Z,99.90
2022-10-16T08:27:35.341Z,99.90
2022-10-16T08:32:30.760Z,99.90
2022-10-16T08:35:01.769Z,99.90
2022-10-16T08:37:35.932Z,99.90
2022-10-16T08:40:05.630Z,99.90
2022-10-16T08:43:03.773Z,99.90
2022-10-16T08:45:36.481Z,99.90
2022-10-16T08:48:41.362Z,99.90
2022-10-16T08:51:09.485Z,99.90
2022-10-16T08:53:46.003Z,99.90
2022-10-16T08:56:13.173Z,99.90
2022-10-16T08:58:40.000Z,99.90
2022-10-16T09:01:14.684Z,99.90
2022-10-16T09:04:10.314Z,99.90
2022-10-16T09:06:48.310Z,99.90
2022-10-16T09:09:53.701Z,99.90
2022-10-16T09:12:55.830Z,99.90
2022-10-16T09:15:37.715Z,99.90
2022-10-16T09:18:20.014Z,99.90
2022-10-16T09:20:55.678Z,99.90
2022-10-16T09:23:35.274Z,99.90
2022-10-16T09:26:03.518Z,99.90
2022-10-16T09:28:30.445Z,99.00
2022-10-16T09:30:57.379Z,90.30
2022-10-16T09:33:30.114Z,83.20
2022-10-16T09:35:59.672Z,84.90
2022-10-16T09:38:28.878Z,80.10
2022-10-16T09:41:02.421Z,76.70
2022-10-16T09:43:35.998Z,72.50
2022-10-16T09:46:08.361Z,73.70
2022-10-16T09:48:45.559Z,73.20
2022-10-16T09:51:24.492Z,69.90
2022-10-16T09:53:56.691Z,71.90
2022-10-16T09:56:34.956Z,68.80
2022-10-16T09:59:09.802Z,69.40
2022-10-16T10:01:39.687Z,68.50
2022-10-16T10:04:08.498Z,68.10
2022-10-16T10:06:44.534Z,66.20
2022-10-16T10:09:22.751Z,66.70
2022-10-16T10:11:56.082Z,66.40
2022-10-16T10:14:28.947Z,66.70
2022-10-16T10:17:05.764Z,65.60
2022-10-16T10:19:53.158Z,68.80
2022-10-16T10:22:46.705Z,69.00
2022-10-16T10:25:13.557Z,69.40
2022-10-16T10:28:08.151Z,71.10
2022-10-16T10:31:17.178Z,72.10
2022-10-16T10:34:09.615Z,74.60
2022-10-16T10:36:41.868Z,76.10
2022-10-16T10:39:31.489Z,79.20
2022-10-16T10:42:21.643Z,79.20
2022-10-16T10:45:00.663Z,77.90
2022-10-16T10:47:42.820Z,73.50
2022-10-16T10:50:46.487Z,70.40
2022-10-16T10:53:15.991Z,67.40
2022-10-16T10:55:51.979Z,66.40
2022-10-16T10:58:49.927Z,64.50
2022-10-16T11:01:28.036Z,64.30
2022-10-16T11:03:58.426Z,62.50
2022-10-16T11:06:31.335Z,60.90
2022-10-16T11:09:16.683Z,61.80
2022-10-16T11:11:54.277Z,61.80
2022-10-16T11:14:27.359Z,60.40
2022-10-16T11:17:00.119Z,62.20
2022-10-16T11:19:35.949Z,63.30
2022-10-16T11:22:10.812Z,64.20
2022-10-16T11:24:49.809Z,61.30
2022-10-16T11:27:28.936Z,61.90
2022-10-16T11:30:04.317Z,61.80
2022-10-16T11:32:51.639Z,60.00
2022-10-16T11:35:47.055Z,61.30
2022-10-16T11:38:43.695Z,62.40
2022-10-16T11:41:27.387Z,62.20
2022-10-16T11:44:10.559Z,65.00
2022-10-16T11:46:58.310Z,65.50
2022-10-16T11:49:32.256Z,66.50
2022-10-16T11:52:03.284Z,66.80
2022-10-16T11:54:44.393Z,67.20
2022-10-16T11:57:23.067Z,66.60
2022-10-16T11:59:57.551Z,65.70
2022-10-16T12:02:56.559Z,62.80
2022-10-16T12:05:26.161Z,63.00
2022-10-16T12:08:28.383Z,59.90
2022-10-16T12:11:06.940Z,60.30
2022-10-16T12:13:36.319Z,60.20
2022-10-16T12:16:13.036Z,57.60
2022-10-16T12:18:42.534Z,58.70
2022-10-16T12:21:11.105Z,60.30
2022-10-16T12:23:40.139Z,58.70
2022-10-16T12:26:07.197Z,59.00
2022-10-16T12:28:34.974Z,58.50
2022-10-16T12:31:06.175Z,58.60
2022-10-16T12:33:40.615Z,60.00
2022-10-16T12:36:29.660Z,60.70
2022-10-16T12:38:57.749Z,62.10
2022-10-16T12:41:34.121Z,62.30
2022-10-16T12:44:02.406Z,62.10
2022-10-16T12:46:34.004Z,63.00
2022-10-16T12:49:23.076Z,63.10
2022-10-16T12:51:50.096Z,62.60
2022-10-16T12:54:20.746Z,60.70
2022-10-16T12:57:06.201Z,61.40
2022-10-16T12:59:56.672Z,62.20
2022-10-16T13:02:29.256Z,61.50
2022-10-16T13:05:14.024Z,62.00
2022-10-16T13:08:26.789Z,62.40
2022-10-16T13:11:09.675Z,62.20
2022-10-16T13:13:36.522Z,64.10
2022-10-16T13:16:37.659Z,63.10
2022-10-16T13:19:42.202Z,62.60
2022-10-16T13:22:25.789Z,61.80
2022-10-16T13:24:58.537Z,61.80
2022-10-16T13:27:39.424Z,62.10
2022-10-16T13:30:17.911Z,62.40
2022-10-16T13:32:51.235Z,62.50
2022-10-16T13:35:32.893Z,63.70
2022-10-16T13:38:17.408Z,64.20
2022-10-16T13:40:59.187Z,64.40
2022-10-16T13:43:32.803Z,63.80
2022-10-16T13:46:08.410Z,63.60
2022-10-16T13:48:35.521Z,63.50
2022-10-16T13:51:20.478Z,63.90
2022-10-16T13:53:47.718Z,61.90
2022-10-16T13:56:20.558Z,62.10
2022-10-16T13:58:48.337Z,62.20
2022-10-16T14:01:26.209Z,60.80
2022-10-16T14:04:12.132Z,59.50
2022-10-16T14:06:43.551Z,60.60
2022-10-16T14:09:15.500Z,58.40
2022-10-16T14:11:57.212Z,60.30
2022-10-16T14:14:25.029Z,60.70
2022-10-16T14:16:52.698Z,66.00
2022-10-16T14:19:25.145Z,61.50
2022-10-16T14:21:52.803Z,61.70
2022-10-16T14:24:32.118Z,61.70
2022-10-16T14:26:59.489Z,62.30
2022-10-16T14:29:28.541Z,62.00
2022-10-16T14:32:01.313Z,63.00
2022-10-16T14:34:34.557Z,62.50
2022-10-16T14:39:41.628Z,63.10
2022-10-16T14:42:20.207Z,64.40
2022-10-16T14:44:48.458Z,63.90
2022-10-16T14:47:24.316Z,64.80
2022-10-16T14:49:52.767Z,65.60
2022-10-16T14:52:19.698Z,64.90
2022-10-16T14:54:49.597Z,64.80
2022-10-16T14:57:23.025Z,65.50
2022-10-16T14:59:52.819Z,65.90
2022-10-16T15:02:36.215Z,66.60
2022-10-16T15:05:16.709Z,67.40
2022-10-16T15:07:44.342Z,67.60
2022-10-16T15:10:11.425Z,68.00
2022-10-16T15:12:38.404Z,68.80
2022-10-16T15:15:36.638Z,69.70
2022-10-16T15:18:04.833Z,70.20
2022-10-16T15:20:35.306Z,70.30
2022-10-16T15:23:04.501Z,71.10
2022-10-16T15:25:47.666Z,71.10
2022-10-16T15:28:15.714Z,71.30
2022-10-16T15:30:43.081Z,72.70
2022-10-16T15:33:15.585Z,72.60
2022-10-16T15:35:42.865Z,72.50
2022-10-16T15:38:14.441Z,73.70
2022-10-16T15:40:42.129Z,75.10
2022-10-16T15:43:09.871Z,75.70
2022-10-16T15:45:36.783Z,77.20
2022-10-16T15:48:04.394Z,78.40
2022-10-16T15:50:32.501Z,80.10
2022-10-16T15:52:59.489Z,81.80
2022-10-16T15:55:26.350Z,82.90
2022-10-16T15:57:53.157Z,80.40
2022-10-16T16:00:26.418Z,79.60
2022-10-16T16:02:54.941Z,78.70
2022-10-16T16:05:23.057Z,79.20
2022-10-16T16:08:15.081Z,78.50
2022-10-16T16:10:42.105Z,81.90
2022-10-16T16:13:09.033Z,79.80
2022-10-16T16:15:39.275Z,81.40
2022-10-16T16:20:38.871Z,83.70
2022-10-16T16:23:05.673Z,84.60
2022-10-16T16:25:32.578Z,86.80
2022-10-16T16:27:59.542Z,87.20
2022-10-16T16:30:28.366Z,87.70
2022-10-16T16:32:55.405Z,89.70
2022-10-16T16:35:22.232Z,90.80
2022-10-16T16:37:49.289Z,90.80
2022-10-16T16:40:16.310Z,91.80
2022-10-16T16:42:43.330Z,92.40
2022-10-16T16:45:10.406Z,93.60
2022-10-16T16:47:39.347Z,94.00
2022-10-16T16:50:07.849Z,94.30
2022-10-16T16:52:36.177Z,95.70
2022-10-16T16:55:03.239Z,95.80
2022-10-16T16:57:30.368Z,96.30
2022-10-16T16:59:57.929Z,97.00
2022-10-16T17:02:25.058Z,97.60
2022-10-16T17:04:51.954Z,98.90
2022-10-16T17:07:23.217Z,99.90
2022-10-16T17:09:51.199Z,99.90
2022-10-16T17:12:18.049Z,99.90
2022-10-16T17:14:44.946Z,99.90
2022-10-16T17:17:11.722Z,99.90
2022-10-16T17:19:39.003Z,99.90
2022-10-16T17:22:05.876Z,99.90
2022-10-16T17:24:32.766Z,99.90
2022-10-16T17:26:59.578Z,99.90
2022-10-16T17:29:26.614Z,99.90
2022-10-16T17:31:53.493Z,99.90
2022-10-16T17:34:20.306Z,99.90
2022-10-16T17:36:47.770Z,99.90
2022-10-16T17:39:17.720Z,99.90
2022-10-16T17:41:45.897Z,99.90
2022-10-16T17:44:19.666Z,99.90
2022-10-16T17:46:48.661Z,99.90
2022-10-16T17:49:16.274Z,99.90
2022-10-16T17:51:43.434Z,99.90
2022-10-16T17:54:12.393Z,99.90
2022-10-16T17:56:39.254Z,99.90
2022-10-16T17:59:07.636Z,99.90
2022-10-16T18:01:36.909Z,99.90
2022-10-16T18:04:13.718Z,99.90
2022-10-16T18:06:42.760Z,99.90
2022-10-16T18:09:11.314Z,99.90
2022-10-16T18:11:38.667Z,99.90
2022-10-16T18:14:06.023Z,99.90
2022-10-16T18:16:33.877Z,99.90
2022-10-16T18:19:00.850Z,99.90
2022-10-16T18:21:28.622Z,99.90
2022-10-16T18:23:56.400Z,99.90
2022-10-16T18:26:23.844Z,99.90
2022-10-16T18:28:57.977Z,99.90
2022-10-16T18:31:28.684Z,99.90
2022-10-16T18:33:56.098Z,99.90
2022-10-16T18:36:25.422Z,99.90
2022-10-16T18:38:53.720Z,99.90
2022-10-16T18:41:20.766Z,99.90
2022-10-16T18:43:47.642Z,99.90
2022-10-16T18:46:20.813Z,99.90
2022-10-16T18:48:48.848Z,99.90
2022-10-16T18:51:29.247Z,99.90
2022-10-16T18:54:01.457Z,99.90
2022-10-16T18:56:30.423Z,99.90
2022-10-16T18:59:00.219Z,99.90
2022-10-16T19:01:29.622Z,99.90
2022-10-16T19:04:05.102Z,99.90
2022-10-16T19:06:39.335Z,99.90
2022-10-16T19:11:40.512Z,99.90
2022-10-16T19:14:08.839Z,99.90
2022-10-16T19:16:36.249Z,99.90
2022-10-16T19:19:05.909Z,99.90
2022-10-16T19:21:36.847Z,99.90
2022-10-16T19:24:04.172Z,99.90
2022-10-16T19:26:33.402Z,99.90
2022-10-16T19:29:04.023Z,99.90
2022-10-16T19:31:31.478Z,99.90
2022-10-16T19:34:02.719Z,99.90
2022-10-16T19:36:31.736Z,99.90
2022-10-16T19:39:00.983Z,99.90
2022-10-16T19:41:29.151Z,99.90
2022-10-16T19:44:00.264Z,99.90
2022-10-16T19:46:27.252Z,99.90
2022-10-16T19:49:00.883Z,99.90
2022-10-16T19:51:29.379Z,99.90
2022-10-16T19:53:58.543Z,99.90
2022-10-16T19:56:27.630Z,99.90
2022-10-16T19:58:56.427Z,99.90
2022-10-16T20:01:30.337Z,99.90
2022-10-16T20:04:09.387Z,99.90
2022-10-16T20:11:00.693Z,99.90
2022-10-16T20:13:41.517Z,99.90
2022-10-16T20:16:37.874Z,99.90
2022-10-16T20:24:01.756Z,99.90
2022-10-16T20:32:18.219Z,99.90
2022-10-16T20:34:52.126Z,99.90
2022-10-16T20:39:59.182Z,99.90
2022-10-16T20:42:30.084Z,99.90
2022-10-16T20:45:29.572Z,99.90
2022-10-16T20:48:10.207Z,99.90
2022-10-16T20:51:08.804Z,99.90
2022-10-16T20:54:14.852Z,99.90
2022-10-16T20:57:04.692Z,99.90
2022-10-16T21:00:19.541Z,99.90
2022-10-16T21:03:16.834Z,99.90
2022-10-16T21:05:54.372Z,99.90
2022-10-16T21:08:58.676Z,99.90
2022-10-16T21:11:35.950Z,99.90
2022-10-16T21:14:17.177Z,99.90
2022-10-16T21:16:55.772Z,99.90
2022-10-16T21:19:37.014Z,99.90
2022-10-16T21:25:29.045Z,99.90
2022-10-16T21:28:06.394Z,99.90
2022-10-16T21:33:50.633Z,99.90
2022-10-16T21:43:23.465Z,99.90
2022-10-16T21:47:07.057Z,99.90
2022-10-16T21:49:51.985Z,99.90
2022-10-16T21:58:31.482Z,99.90
2022-10-16T22:05:03.301Z,99.90
2022-10-16T22:07:50.605Z,99.90
2022-10-16T22:13:52.613Z,99.90
2022-10-16T22:17:11.653Z,99.90
2022-10-16T22:20:09.737Z,99.90
2022-10-16T22:23:22.542Z,99.90
2022-10-16T22:33:13.253Z,99.90
2022-10-16T22:48:18.097Z,99.90
2022-10-16T22:54:34.188Z,99.90
2022-10-16T23:00:13.482Z,99.90
2022-10-16T23:02:53.410Z,99.90
2022-10-16T23:05:21.037Z,99.90
2022-10-16T23:07:50.744Z,99.90
2022-10-16T23:10:38.281Z,99.90
2022-10-16T23:16:16.797Z,99.90
2022-10-16T23:18:47.476Z,99.90
2022-10-16T23:21:21.181Z,99.90
2022-10-16T23:23:48.865Z,99.90
2022-10-16T23:26:22.965Z,99.90
2022-10-16T23:28:50.640Z,99.90
2022-10-16T23:31:19.104Z,99.90
2022-10-16T23:36:17.349Z,99.90
2022-10-16T23:38:48.637Z,99.90
2022-10-16T23:41:17.642Z,99.90
2022-10-16T23:43:55.045Z,99.90
2022-10-16T23:56:19.967Z,99.90
